Time;durP1;ratioP1;P1;durP2;ratioP2;P2;SDS_P1;SDS_P2;PMS_P1;PMS_P2;Temp;Humidity;BMP_temperature;BMP_pressure;BME280_temperature;BME280_humidity;BME280_pressure;Samples;Min_cycle;Max_cycle;Signal;HPM_P1;HPM_P2
2021/01/01 00:00:05;;;;;;;83.65;50.08;;;;;;;3.31;64.27;100043.78;698218;28;45224;-56
2021/01/01 00:00:26;;;;;;;82.30;49.58;;;;;;;3.31;64.25;100054.44;698371;28;45259;-60
2021/01/01 00:00:48;;;;;;;78.35;47.58;;;;;;;3.31;64.32;100049.13;698911;28;22400;-60
2021/01/01 00:01:10;;;;;;;74.97;47.25;;;;;;;3.32;64.35;100055.28;697865;28;45398;-61
2021/01/01 00:01:32;;;;;;;79.00;48.50;;;;;;;3.32;64.30;100052.63;699037;28;1155;-60
2021/01/01 00:01:54;;;;;;;81.25;48.25;;;;;;;3.32;64.37;100055.28;695208;28;43630;-60
2021/01/01 00:02:15;;;;;;;82.03;47.53;;;;;;;3.32;64.32;100055.28;695599;28;45111;-61
2021/01/01 00:02:37;;;;;;;77.25;46.75;;;;;;;3.32;64.38;100052.63;696362;28;23492;-59
2021/01/01 00:03:00;;;;;;;79.25;47.42;;;;;;;3.31;64.39;100054.44;695919;28;45259;-61
2021/01/01 00:03:21;;;;;;;79.93;46.88;;;;;;;3.31;64.38;100051.78;694515;28;69196;-59
2021/01/01 00:03:43;;;;;;;79.40;47.55;;;;;;;3.30;64.29;100044.75;696535;28;22374;-60
2021/01/01 00:04:05;;;;;;;89.43;49.45;;;;;;;3.31;64.25;100050.91;695886;28;46258;-60
2021/01/01 00:04:26;;;;;;;91.95;48.42;;;;;;;3.31;64.29;100049.13;695278;28;46287;-58
2021/01/01 00:04:48;;;;;;;89.22;48.63;;;;;;;3.30;64.29;100046.59;695347;28;46345;-59
2021/01/01 00:05:15;;;;;;;79.68;47.92;;;;;;;3.29;64.29;100053.78;696340;28;21508;-60
2021/01/01 00:05:37;;;;;;;95.32;50.53;;;;;;;3.29;64.29;100048.44;691301;28;136436;-58
2021/01/01 00:05:59;;;;;;;93.78;50.55;;;;;;;3.30;64.20;100054.59;689249;28;45163;-61
2021/01/01 00:06:21;;;;;;;98.20;51.70;;;;;;;3.30;64.32;100051.94;688805;28;45534;-58
2021/01/01 00:06:46;;;;;;;100.10;51.95;;;;;;;3.31;64.34;100050.91;688592;28;46502;-62
2021/01/01 00:07:07;;;;;;;96.15;50.38;;;;;;;3.31;64.41;100057.13;687970;28;115183;-59
2021/01/01 00:07:29;;;;;;;88.80;49.42;;;;;;;3.31;64.43;100046.44;691823;28;22522;-60
2021/01/01 00:07:51;;;;;;;91.20;51.08;;;;;;;3.31;64.45;100050.91;694487;28;46294;-61
2021/01/01 00:08:12;;;;;;;93.30;49.92;;;;;;;3.31;64.43;100049.13;698058;28;46357;-58
2021/01/01 00:08:34;;;;;;;88.13;49.40;;;;;;;3.31;64.45;100050.91;698440;28;41220;-60
2021/01/01 00:08:55;;;;;;;78.72;44.22;;;;;;;3.32;64.52;100055.28;698337;28;22525;-59
2021/01/01 00:09:18;;;;;;;68.70;39.42;;;;;;;3.31;64.44;100054.44;696072;28;23546;-59
2021/01/01 00:09:39;;;;;;;66.95;36.83;;;;;;;3.30;64.36;100049.25;691783;28;69446;-59
2021/01/01 00:10:01;;;;;;;68.25;38.47;;;;;;;3.31;64.44;100051.78;693687;28;22409;-57
2021/01/01 00:10:22;;;;;;;70.13;39.70;;;;;;;3.31;64.44;100053.59;692773;28;47477;-59
2021/01/01 00:10:43;;;;;;;67.38;39.83;;;;;;;3.32;64.42;100045.44;694174;28;11042;-58
2021/01/01 00:11:05;;;;;;;67.57;39.35;;;;;;;3.32;64.47;100057.94;692432;28;47501;-57
2021/01/01 00:11:27;;;;;;;71.18;39.53;;;;;;;3.31;64.61;100054.44;694306;28;22417;-55
2021/01/01 00:11:48;;;;;;;64.55;37.67;;;;;;;3.31;64.54;100050.91;695623;28;46296;-58
2021/01/01 00:12:10;;;;;;;54.45;32.28;;;;;;;3.32;64.47;100050.78;695582;28;46226;-61
2021/01/01 00:12:32;;;;;;;52.65;31.88;;;;;;;3.31;64.42;100053.59;696136;28;25794;-61
2021/01/01 00:12:53;;;;;;;58.00;32.65;;;;;;;3.29;64.44;100051.09;695654;28;22377;-61
2021/01/01 00:13:15;;;;;;;55.05;32.55;;;;;;;3.28;64.35;100049.41;695101;28;45250;-55
2021/01/01 00:13:36;;;;;;;56.70;32.92;;;;;;;3.29;64.31;100052.91;696318;28;23490;-58
2021/01/01 00:13:57;;;;;;;58.47;33.50;;;;;;;3.28;64.35;100054.75;696609;28;23478;-60
2021/01/01 00:14:19;;;;;;;55.88;32.65;;;;;;;3.28;64.55;100048.56;696464;28;23498;-63
2021/01/01 00:14:40;;;;;;;51.92;32.08;;;;;;;3.29;64.54;100050.25;695092;28;45223;-59
2021/01/01 00:15:02;;;;;;;56.55;33.35;;;;;;;3.28;64.38;100052.06;696489;28;14779;-63
2021/01/01 00:15:23;;;;;;;58.63;33.50;;;;;;;3.29;64.46;100058.25;694444;28;69498;-62
2021/01/01 00:15:45;;;;;;;59.38;33.17;;;;;;;3.29;64.52;100058.25;696605;28;23460;-59
2021/01/01 00:16:06;;;;;;;57.05;32.95;;;;;;;3.29;64.46;100058.25;696081;28;22363;-61
2021/01/01 00:16:28;;;;;;;57.63;32.50;;;;;;;3.28;64.66;100052.06;695722;28;46349;-60
2021/01/01 00:16:49;;;;;;;60.80;33.65;;;;;;;3.28;64.62;100052.06;696689;28;21531;-55
2021/01/01 00:17:10;;;;;;;55.20;33.47;;;;;;;3.29;64.66;100061.78;696698;28;21546;-58
2021/01/01 00:17:32;;;;;;;50.03;30.85;;;;;;;3.27;64.63;100054.91;695201;28;44412;-61
2021/01/01 00:17:53;;;;;;;49.30;30.75;;;;;;;3.28;64.48;100052.06;696254;28;23501;-58
2021/01/01 00:18:15;;;;;;;51.28;31.55;;;;;;;3.27;64.56;100057.56;695168;28;46350;-57
2021/01/01 00:18:36;;;;;;;55.13;32.42;;;;;;;3.25;64.45;100055.88;696687;28;21397;-61
2021/01/01 00:18:57;;;;;;;53.43;31.83;;;;;;;3.26;64.46;100056.72;696461;28;22485;-60
2021/01/01 00:19:19;;;;;;;52.55;31.30;;;;;;;3.26;64.64;100051.41;695449;28;46134;-60
2021/01/01 00:19:42;;;;;;;51.65;31.45;;;;;;;3.28;64.58;100061.91;696846;28;1346;-62
2021/01/01 00:20:04;;;;;;;49.42;31.17;;;;;;;3.27;64.74;100054.91;696649;28;21074;-63
2021/01/01 00:20:26;;;;;;;48.83;30.00;;;;;;;3.27;64.79;100052.22;694386;28;67965;-63
2021/01/01 00:20:47;;;;;;;50.40;30.58;;;;;;;3.27;64.67;100057.56;696587;28;2297;-61
2021/01/01 00:21:09;;;;;;;48.30;29.90;;;;;;;3.25;64.65;100055.88;695879;28;21605;-63
2021/01/01 00:21:32;;;;;;;44.60;28.48;;;;;;;3.27;64.68;100055.72;696403;28;11797;-60
2021/01/01 00:21:53;;;;;;;45.50;28.77;;;;;;;3.28;64.58;100056.59;695224;28;45262;-64
2021/01/01 00:22:15;;;;;;;47.10;29.73;;;;;;;3.28;64.52;100061.91;694240;28;46088;-64
2021/01/01 00:22:43;;;;;;;45.30;28.25;;;;;;;3.27;64.58;100052.22;694911;28;61000;-61
2021/01/01 00:23:04;;;;;;;46.42;29.02;;;;;;;3.28;64.52;100057.41;695502;28;46783;-65
2021/01/01 00:23:26;;;;;;;44.90;28.73;;;;;;;3.28;64.47;100049.41;696149;28;8315;-64
2021/01/01 00:23:47;;;;;;;48.05;28.63;;;;;;;3.30;64.37;100059.94;695960;28;22354;-60
2021/01/01 00:24:09;;;;;;;48.33;29.23;;;;;;;3.30;64.28;100057.28;695185;28;46432;-63
2021/01/01 00:24:30;;;;;;;46.55;29.52;;;;;;;3.30;64.25;100057.28;695484;28;46347;-63
2021/01/01 00:24:52;;;;;;;51.88;30.20;;;;;;;3.29;64.21;100053.78;696202;28;21120;-63
2021/01/01 00:25:13;;;;;;;48.13;29.25;;;;;;;3.30;64.26;100049.25;696048;28;22348;-63
2021/01/01 00:25:34;;;;;;;46.45;29.88;;;;;;;3.31;64.25;100057.13;695583;28;44405;-63
2021/01/01 00:25:56;;;;;;;50.58;29.58;;;;;;;3.31;64.26;100053.59;695075;28;23406;-63
2021/01/01 00:26:18;;;;;;;47.65;28.95;;;;;;;3.32;64.05;100055.28;693029;28;23430;-63
2021/01/01 00:26:39;;;;;;;45.25;29.48;;;;;;;3.30;64.12;100054.59;691973;28;47583;-62
2021/01/01 00:27:01;;;;;;;47.70;30.08;;;;;;;3.32;64.19;100050.78;693816;28;23468;-61
2021/01/01 00:27:22;;;;;;;48.05;30.10;;;;;;;3.32;64.15;100055.28;692291;28;46085;-61
2021/01/01 00:27:44;;;;;;;47.42;30.90;;;;;;;3.32;64.20;100049.94;691463;28;45273;-63
2021/01/01 00:28:05;;;;;;;48.33;29.95;;;;;;;3.33;64.17;100055.13;693723;28;24524;-61
2021/01/01 00:28:31;;;;;;;48.55;29.30;;;;;;;3.32;64.26;100053.44;694819;28;61707;-63
2021/01/01 00:28:53;;;;;;;49.53;29.38;;;;;;;3.33;64.12;100060.47;695507;28;24321;-58
2021/01/01 00:29:14;;;;;;;48.10;29.75;;;;;;;3.33;64.19;100055.13;695624;28;23559;-63
2021/01/01 00:29:36;;;;;;;51.17;30.23;;;;;;;3.34;64.10;100055.97;694951;28;36799;-65
2021/01/01 00:29:57;;;;;;;47.75;29.25;;;;;;;3.32;64.07;100053.44;695921;28;19894;-62
2021/01/01 00:30:19;;;;;;;46.35;29.60;;;;;;;3.32;64.07;100055.28;696202;28;14896;-62
2021/01/01 00:30:41;;;;;;;51.08;31.30;;;;;;;3.32;64.17;100063.28;694224;28;46300;-63
2021/01/01 00:31:02;;;;;;;47.17;30.30;;;;;;;3.31;64.10;100057.13;695303;28;30270;-64
2021/01/01 00:31:25;;;;;;;50.72;30.42;;;;;;;3.32;64.26;100060.63;695817;28;20405;-63
2021/01/01 00:31:47;;;;;;;50.72;30.98;;;;;;;3.32;64.20;100052.63;694288;28;69465;-62
2021/01/01 00:32:09;;;;;;;46.33;28.98;;;;;;;3.32;64.16;100056.13;694933;28;46282;-59
2021/01/01 00:32:30;;;;;;;47.63;29.42;;;;;;;3.33;64.17;100064.97;696476;28;20005;-61
2021/01/01 00:32:51;;;;;;;49.53;31.13;;;;;;;3.32;64.06;100058.78;695747;28;32673;-63
2021/01/01 00:33:13;;;;;;;54.10;32.38;;;;;;;3.32;64.11;100053.44;696220;28;19854;-62
2021/01/01 00:33:34;;;;;;;56.38;32.80;;;;;;;3.33;64.17;100062.31;696594;28;11073;-60
2021/01/01 00:33:56;;;;;;;53.22;31.95;;;;;;;3.33;64.30;100054.31;692584;28;22729;-59
2021/01/01 00:34:17;;;;;;;52.10;31.35;;;;;;;3.32;64.11;100060.63;693362;28;22471;-61
2021/01/01 00:34:39;;;;;;;49.70;31.42;;;;;;;3.32;64.22;100058.78;691999;28;47466;-62
2021/01/01 00:35:00;;;;;;;51.35;31.95;;;;;;;3.32;64.17;100060.63;691976;28;44757;-69
2021/01/01 00:35:22;;;;;;;53.25;31.10;;;;;;;3.33;64.11;100057.81;693263;28;21561;-64
2021/01/01 00:35:43;;;;;;;54.60;31.80;;;;;;;3.33;64.11;100056.97;694660;28;1651;-62
2021/01/01 00:36:05;;;;;;;54.92;32.42;;;;;;;3.32;64.18;100056.13;694316;28;46312;-64
2021/01/01 00:36:26;;;;;;;52.60;32.47;;;;;;;3.33;64.20;100063.16;694924;28;46181;-63
2021/01/01 00:36:49;;;;;;;53.05;32.95;;;;;;;3.32;64.18;100060.63;695765;28;22197;-64
2021/01/01 00:37:10;;;;;;;55.55;33.22;;;;;;;3.33;64.18;100059.66;695094;28;45270;-61
2021/01/01 00:37:34;;;;;;;56.10;33.60;;;;;;;3.33;64.25;100060.47;694764;28;46510;-63
2021/01/01 00:37:55;;;;;;;56.38;32.95;;;;;;;3.33;64.16;100065.81;693599;28;92143;-63
2021/01/01 00:38:17;;;;;;;55.78;33.20;;;;;;;3.33;64.20;100057.81;695786;28;24161;-63
2021/01/01 00:38:38;;;;;;;57.17;33.63;;;;;;;3.32;64.06;100058.78;694269;28;45237;-64
2021/01/01 00:38:59;;;;;;;56.83;33.88;;;;;;;3.33;63.89;100064.97;695255;28;22980;-63
2021/01/01 00:39:21;;;;;;;57.15;34.85;;;;;;;3.33;64.18;100060.47;691027;28;1417;-64
2021/01/01 00:39:42;;;;;;;56.55;34.83;;;;;;;3.32;64.27;100057.94;690488;28;35237;-64
2021/01/01 00:40:05;;;;;;;52.72;34.20;;;;;;;3.33;64.23;100060.47;690443;28;23586;-64
2021/01/01 00:40:26;;;;;;;60.08;35.75;;;;;;;3.33;64.17;100063.16;688779;28;70620;-64
2021/01/01 00:40:47;;;;;;;64.90;37.55;;;;;;;3.33;64.18;100057.81;690930;28;22407;-64
2021/01/01 00:41:09;;;;;;;62.15;38.00;;;;;;;3.33;64.18;100063.16;691538;28;22413;-62
2021/01/01 00:41:33;;;;;;;65.47;38.45;;;;;;;3.34;64.15;100058.63;694540;28;44368;-64
2021/01/01 00:41:55;;;;;;;62.60;37.58;;;;;;;3.32;64.11;100058.78;692824;28;116284;-63
2021/01/01 00:42:16;;;;;;;65.82;38.45;;;;;;;3.34;64.19;100062.16;695686;28;38484;-64
2021/01/01 00:42:38;;;;;;;65.35;38.45;;;;;;;3.33;64.28;100060.47;695271;28;23384;-57
2021/01/01 00:42:59;;;;;;;68.43;39.58;;;;;;;3.34;64.29;100061.31;694674;28;46406;-67
2021/01/01 00:43:20;;;;;;;71.95;39.03;;;;;;;3.35;64.20;100060.31;696165;28;24393;-62
2021/01/01 00:43:42;;;;;;;68.00;38.63;;;;;;;3.34;64.47;100059.50;695718;28;23432;-62
2021/01/01 00:44:03;;;;;;;64.50;37.80;;;;;;;3.32;64.28;100058.78;695442;28;44204;-64
2021/01/01 00:44:25;;;;;;;65.03;37.22;;;;;;;3.34;64.32;100058.63;696451;28;21540;-64
2021/01/01 00:44:46;;;;;;;62.80;37.38;;;;;;;3.34;64.36;100067.50;695321;28;46324;-63
2021/01/01 00:45:08;;;;;;;65.20;38.13;;;;;;;3.33;64.37;100063.16;693421;28;22401;-63
2021/01/01 00:45:30;;;;;;;67.22;38.38;;;;;;;3.35;64.32;100071.00;692381;28;46449;-64
2021/01/01 00:45:51;;;;;;;67.22;39.67;;;;;;;3.34;64.27;100062.16;692258;28;46508;-64
2021/01/01 00:46:12;;;;;;;63.95;39.17;;;;;;;3.35;64.43;100057.66;693042;28;22395;-63
2021/01/01 00:46:34;;;;;;;64.53;40.63;;;;;;;3.35;64.22;100066.50;693079;28;23572;-63
2021/01/01 00:46:55;;;;;;;69.13;41.15;;;;;;;3.35;64.13;100063.00;694734;28;8248;-64
2021/01/01 00:47:17;;;;;;;67.10;39.83;;;;;;;3.36;64.18;100065.53;696371;28;22412;-63
2021/01/01 00:47:38;;;;;;;64.15;39.45;;;;;;;3.36;64.17;100067.34;694520;28;45836;-62
2021/01/01 00:47:59;;;;;;;66.68;39.17;;;;;;;3.35;64.10;100057.66;695735;28;22174;-64
2021/01/01 00:48:21;;;;;;;70.97;41.17;;;;;;;3.35;64.20;100061.16;696102;28;22399;-64
2021/01/01 00:48:42;;;;;;;69.47;40.80;;;;;;;3.34;64.17;100064.84;695194;28;46175;-61
2021/01/01 00:49:04;;;;;;;68.05;39.30;;;;;;;3.35;64.14;100061.16;696705;28;21539;-63
2021/01/01 00:49:25;;;;;;;72.00;39.63;;;;;;;3.35;64.07;100066.50;695578;28;46244;-63
2021/01/01 00:49:47;;;;;;;67.97;38.53;;;;;;;3.35;64.17;100060.31;695685;28;29267;-63
2021/01/01 00:50:09;;;;;;;61.88;37.92;;;;;;;3.35;64.11;100063.00;696121;28;20872;-61
2021/01/01 00:50:31;;;;;;;66.18;39.22;;;;;;;3.35;64.13;100063.00;694431;28;67563;-64
2021/01/01 00:50:52;;;;;;;67.82;39.65;;;;;;;3.35;64.13;100057.66;695976;28;22418;-60
2021/01/01 00:51:14;;;;;;;70.60;40.50;;;;;;;3.35;64.24;100060.31;695776;28;45286;-63
2021/01/01 00:51:35;;;;;;;71.40;41.10;;;;;;;3.35;64.17;100057.66;695720;28;23561;-63
2021/01/01 00:52:01;;;;;;;69.38;40.78;;;;;;;3.34;64.25;100064.84;693870;28;9096;-62
2021/01/01 00:52:24;;;;;;;70.50;40.88;;;;;;;3.34;64.16;100059.50;691787;28;61661;-64
2021/01/01 00:52:45;;;;;;;68.97;40.13;;;;;;;3.34;64.27;100064.84;692044;28;44655;-64
2021/01/01 00:53:06;;;;;;;69.22;39.38;;;;;;;3.33;64.24;100057.81;693373;28;21515;-63
2021/01/01 00:53:27;;;;;;;70.18;38.75;;;;;;;3.34;64.24;100053.28;690036;28;44863;-64
2021/01/01 00:53:49;;;;;;;69.82;39.92;;;;;;;3.34;64.21;100059.50;692296;28;19023;-65
2021/01/01 00:54:10;;;;;;;67.38;39.35;;;;;;;3.33;64.23;100057.81;693492;28;22409;-64
2021/01/01 00:54:32;;;;;;;61.72;38.60;;;;;;;3.34;64.22;100061.31;693031;28;33606;-64
2021/01/01 00:54:54;;;;;;;66.38;39.20;;;;;;;3.34;64.17;100064.84;692409;28;46279;-63
2021/01/01 00:55:15;;;;;;;66.38;38.33;;;;;;;3.33;64.17;100055.13;693870;28;22406;-64
2021/01/01 00:55:36;;;;;;;66.03;39.30;;;;;;;3.34;64.32;100064.84;696273;28;22411;-66
2021/01/01 00:55:58;;;;;;;69.30;39.67;;;;;;;3.33;64.24;100057.81;695059;28;45098;-63
2021/01/01 00:56:20;;;;;;;64.45;39.40;;;;;;;3.34;64.23;100058.63;696486;28;22265;-64
2021/01/01 00:56:41;;;;;;;64.57;38.78;;;;;;;3.33;64.20;100051.63;695274;28;46654;-64
2021/01/01 00:57:03;;;;;;;64.00;38.78;;;;;;;3.33;64.26;100052.47;695980;28;22387;-62
2021/01/01 00:57:24;;;;;;;68.63;39.03;;;;;;;3.34;64.27;100061.31;695214;28;45595;-63
2021/01/01 00:57:45;;;;;;;66.20;39.08;;;;;;;3.34;64.30;100055.97;696103;28;22430;-65
2021/01/01 00:58:07;;;;;;;66.95;38.72;;;;;;;3.33;64.24;100060.47;695221;28;47200;-63
2021/01/01 00:58:28;;;;;;;66.80;38.70;;;;;;;3.34;64.30;100058.63;696705;28;22400;-64
2021/01/01 00:58:51;;;;;;;66.25;39.85;;;;;;;3.34;64.29;100063.97;695604;28;46365;-63
2021/01/01 00:59:12;;;;;;;68.70;39.53;;;;;;;3.33;64.31;100055.13;697144;28;1154;-63
2021/01/01 00:59:33;;;;;;;68.05;38.95;;;;;;;3.33;64.24;100062.31;696129;28;23462;-64
2021/01/01 00:59:54;;;;;;;67.35;38.85;;;;;;;3.32;64.34;100058.78;694614;28;44460;-64
2021/01/01 01:00:17;;;;;;;64.63;38.63;;;;;;;3.34;64.27;100055.97;696077;28;21566;-63
2021/01/01 01:00:39;;;;;;;65.13;38.42;;;;;;;3.33;64.18;100055.13;694027;28;69386;-63
2021/01/01 01:01:00;;;;;;;65.60;38.80;;;;;;;3.33;64.18;100059.66;696645;28;4593;-64
2021/01/01 01:01:23;;;;;;;64.50;38.50;;;;;;;3.34;64.23;100058.63;696482;28;22398;-64
2021/01/01 01:01:44;;;;;;;67.13;38.60;;;;;;;3.34;64.28;100053.28;693470;28;92300;-63
2021/01/01 01:02:06;;;;;;;69.43;38.97;;;;;;;3.32;64.20;100052.63;695541;28;22281;-63
2021/01/01 01:02:27;;;;;;;70.93;40.05;;;;;;;3.33;64.28;100057.81;695246;28;44875;-64
2021/01/01 01:02:49;;;;;;;69.50;40.10;;;;;;;3.34;64.19;100062.16;696556;28;22372;-63
2021/01/01 01:03:10;;;;;;;68.63;39.63;;;;;;;3.33;64.28;100063.16;696100;28;24373;-62
2021/01/01 01:03:31;;;;;;;63.58;38.53;;;;;;;3.34;64.26;100054.16;697015;28;1371;-64
2021/01/01 01:03:55;;;;;;;66.07;38.33;;;;;;;3.33;64.30;100057.81;695627;28;46363;-63
2021/01/01 01:04:16;;;;;;;64.00;38.50;;;;;;;3.35;64.22;100061.16;694635;28;69712;-63
2021/01/01 01:04:37;;;;;;;65.03;37.88;;;;;;;3.35;64.38;100060.31;695856;28;45870;-64
2021/01/01 01:04:58;;;;;;;63.67;38.00;;;;;;;3.34;64.27;100056.81;695975;28;22422;-64
2021/01/01 01:05:20;;;;;;;66.68;39.03;;;;;;;3.35;64.26;100061.16;696221;28;22351;-63
2021/01/01 01:05:41;;;;;;;70.00;38.85;;;;;;;3.34;64.36;100055.97;695429;28;41160;-63
2021/01/01 01:06:03;;;;;;;67.38;39.17;;;;;;;3.35;64.28;100061.16;695716;28;23204;-61
2021/01/01 01:06:26;;;;;;;66.38;38.95;;;;;;;3.36;64.22;100059.34;695477;28;41105;-63
2021/01/01 01:06:47;;;;;;;64.40;38.20;;;;;;;3.35;64.19;100061.16;695542;28;46346;-63
2021/01/01 01:07:09;;;;;;;67.68;39.63;;;;;;;3.35;64.34;100061.16;695144;28;46272;-62
2021/01/01 01:07:31;;;;;;;67.63;39.33;;;;;;;3.35;64.28;100055.81;695421;28;45222;-63
2021/01/01 01:07:52;;;;;;;66.72;37.95;;;;;;;3.35;64.28;100053.16;696787;28;22586;-60
2021/01/01 01:08:14;;;;;;;62.47;37.63;;;;;;;3.35;64.28;100052.31;696523;28;22152;-62
2021/01/01 01:08:35;;;;;;;63.60;38.63;;;;;;;3.34;64.27;100055.97;695967;28;46236;-61
2021/01/01 01:08:56;;;;;;;63.20;38.60;;;;;;;3.34;64.21;100050.63;695045;28;44405;-62
2021/01/01 01:09:18;;;;;;;63.42;37.50;;;;;;;3.35;64.28;100049.66;695766;28;22401;-63
2021/01/01 01:09:40;;;;;;;60.75;37.25;;;;;;;3.35;64.22;100049.66;695947;28;23503;-60
2021/01/01 01:10:01;;;;;;;63.78;37.75;;;;;;;3.36;64.32;100051.34;695537;28;45279;-63
2021/01/01 01:10:22;;;;;;;66.90;37.97;;;;;;;3.36;64.20;100048.69;696345;28;19790;-61
2021/01/01 01:10:44;;;;;;;66.15;38.28;;;;;;;3.35;64.20;100052.31;695389;28;46532;-64
2021/01/01 01:11:06;;;;;;;67.97;38.35;;;;;;;3.36;64.26;100057.50;691987;28;44364;-63
2021/01/01 01:11:29;;;;;;;61.60;37.35;;;;;;;3.36;64.31;100051.34;692962;28;21559;-61
2021/01/01 01:11:50;;;;;;;63.58;37.72;;;;;;;3.35;64.34;100052.31;692306;28;59681;-63
2021/01/01 01:12:11;;;;;;;61.58;37.03;;;;;;;3.35;64.36;100055.81;692733;28;46259;-61
2021/01/01 01:12:32;;;;;;;63.72;37.55;;;;;;;3.33;64.19;100048.97;693678;28;22420;-61
2021/01/01 01:12:54;;;;;;;63.63;37.30;;;;;;;3.34;64.16;100053.28;694820;28;24322;-63
2021/01/01 01:13:15;;;;;;;64.00;38.47;;;;;;;3.33;64.26;100057.81;695341;28;45294;-61
2021/01/01 01:13:37;;;;;;;66.18;37.67;;;;;;;3.35;64.30;100060.31;695804;28;21564;-63
2021/01/01 01:13:58;;;;;;;64.55;38.30;;;;;;;3.33;64.39;100052.47;696905;28;21542;-64
2021/01/01 01:14:20;;;;;;;66.68;38.10;;;;;;;3.34;64.29;100054.16;695748;28;46364;-63
2021/01/01 01:14:41;;;;;;;64.32;37.58;;;;;;;3.33;64.45;100052.47;695852;28;47943;-60
2021/01/01 01:15:03;;;;;;;63.25;38.25;;;;;;;3.33;64.39;100060.47;696016;28;21554;-60
2021/01/01 01:15:25;;;;;;;63.65;37.50;;;;;;;3.33;64.43;100059.66;695208;28;46255;-63
2021/01/01 01:15:46;;;;;;;63.38;37.65;;;;;;;3.33;64.36;100047.13;696619;28;22205;-63
2021/01/01 01:16:07;;;;;;;63.30;39.35;;;;;;;3.33;64.46;100051.63;695487;28;42772;-61
2021/01/01 01:16:30;;;;;;;61.80;37.67;;;;;;;3.33;64.55;100055.13;696598;28;23460;-62
2021/01/01 01:16:51;;;;;;;62.38;36.97;;;;;;;3.34;64.41;100055.97;694715;28;64500;-60
2021/01/01 01:17:13;;;;;;;64.35;36.65;;;;;;;3.33;64.30;100055.13;696266;28;23544;-61
2021/01/01 01:17:34;;;;;;;60.50;36.97;;;;;;;3.34;64.35;100059.50;695309;28;44368;-61
2021/01/01 01:17:55;;;;;;;59.65;36.33;;;;;;;3.34;64.35;100058.63;696258;28;22421;-63
2021/01/01 01:18:17;;;;;;;60.97;37.60;;;;;;;3.33;64.31;100054.31;696359;28;22151;-61
2021/01/01 01:18:38;;;;;;;60.85;37.35;;;;;;;3.33;64.34;100060.47;695760;28;46182;-61
2021/01/01 01:19:00;;;;;;;58.08;36.10;;;;;;;3.33;64.42;100059.66;696501;28;23345;-63
2021/01/01 01:19:22;;;;;;;61.63;36.47;;;;;;;3.34;64.26;100058.63;696426;28;15119;-63
2021/01/01 01:19:43;;;;;;;59.33;35.28;;;;;;;3.33;64.41;100055.13;695754;28;45376;-63
2021/01/01 01:20:06;;;;;;;61.58;35.70;;;;;;;3.32;64.35;100064.13;696523;28;22382;-62
2021/01/01 01:20:27;;;;;;;57.97;34.72;;;;;;;3.33;64.39;100054.31;695280;28;46395;-63
2021/01/01 01:20:49;;;;;;;59.25;35.10;;;;;;;3.33;64.50;100052.47;695455;28;44425;-63
2021/01/01 01:21:10;;;;;;;57.58;34.55;;;;;;;3.33;64.40;100049.78;696134;28;22302;-63
2021/01/01 01:21:31;;;;;;;57.17;34.40;;;;;;;3.33;64.34;100057.81;696119;28;38948;-63
2021/01/01 01:21:53;;;;;;;57.67;35.40;;;;;;;3.33;64.54;100051.63;697416;28;996;-62
2021/01/01 01:22:15;;;;;;;58.45;35.15;;;;;;;3.34;64.41;100055.97;695214;28;45338;-65
2021/01/01 01:22:36;;;;;;;54.72;33.92;;;;;;;3.33;64.45;100054.31;695305;28;45411;-63
2021/01/01 01:22:57;;;;;;;57.00;33.35;;;;;;;3.32;64.44;100052.63;696174;28;22391;-61
2021/01/01 01:23:19;;;;;;;57.88;33.30;;;;;;;3.32;64.28;100052.63;696123;28;22413;-64
2021/01/01 01:23:41;;;;;;;59.13;33.75;;;;;;;3.34;64.48;100053.28;695449;28;46353;-62
2021/01/01 01:24:02;;;;;;;55.97;33.28;;;;;;;3.33;64.68;100057.81;695600;28;45969;-63
2021/01/01 01:24:23;;;;;;;55.60;33.72;;;;;;;3.34;64.55;100055.97;696159;28;23482;-61
2021/01/01 01:24:45;;;;;;;55.42;33.85;;;;;;;3.33;64.54;100055.13;696056;28;20860;-63
2021/01/01 01:25:09;;;;;;;54.35;32.45;;;;;;;3.31;64.58;100049.13;696711;28;14871;-62
2021/01/01 01:25:30;;;;;;;52.70;32.75;;;;;;;3.34;64.49;100055.97;696528;28;1005;-64
2021/01/01 01:25:52;;;;;;;55.67;31.90;;;;;;;3.32;64.56;100055.28;695462;28;43476;-62
2021/01/01 01:26:13;;;;;;;51.67;31.88;;;;;;;3.33;64.52;100055.13;696284;28;18161;-61
2021/01/01 01:26:35;;;;;;;50.78;31.38;;;;;;;3.33;64.36;100048.97;697497;28;926;-61
2021/01/01 01:26:58;;;;;;;47.63;30.05;;;;;;;3.34;64.56;100050.63;696941;28;985;-61
2021/01/01 01:27:19;;;;;;;47.35;30.05;;;;;;;3.33;64.45;100057.81;695474;28;45494;-62
2021/01/01 01:27:40;;;;;;;53.28;30.92;;;;;;;3.33;64.51;100055.13;697408;28;929;-63
2021/01/01 01:28:02;;;;;;;56.63;31.23;;;;;;;3.33;64.44;100049.78;695817;28;45252;-63
2021/01/01 01:28:24;;;;;;;49.70;29.75;;;;;;;3.32;64.44;100048.09;692829;28;23453;-63
2021/01/01 01:28:45;;;;;;;50.50;30.52;;;;;;;3.32;64.39;100052.63;692320;28;45297;-61
2021/01/01 01:29:06;;;;;;;49.35;29.85;;;;;;;3.32;64.47;100041.94;693220;28;23785;-64
2021/01/01 01:29:28;;;;;;;48.80;30.25;;;;;;;3.31;64.42;100043.78;689709;28;45825;-63
2021/01/01 01:29:51;;;;;;;47.22;29.50;;;;;;;3.31;64.47;100051.78;691031;28;23560;-63
2021/01/01 01:30:13;;;;;;;46.70;29.35;;;;;;;3.31;64.46;100049.13;689625;28;67499;-62
2021/01/01 01:30:35;;;;;;;46.88;28.33;;;;;;;3.31;64.49;100049.13;691890;28;67157;-63
2021/01/01 01:30:56;;;;;;;48.95;29.30;;;;;;;3.29;64.38;100048.44;693523;28;22386;-61
2021/01/01 01:31:18;;;;;;;49.28;29.85;;;;;;;3.31;64.51;100048.25;694587;28;22313;-63
2021/01/01 01:31:39;;;;;;;48.17;29.30;;;;;;;3.30;64.56;100049.25;695311;28;45242;-61
2021/01/01 01:32:00;;;;;;;45.72;28.50;;;;;;;3.30;64.47;100049.25;696567;28;12694;-64
2021/01/01 01:32:22;;;;;;;43.78;27.83;;;;;;;3.31;64.52;100051.78;695233;28;43618;-60
2021/01/01 01:32:43;;;;;;;46.25;28.75;;;;;;;3.29;64.46;100045.75;696031;28;23409;-63
2021/01/01 01:33:05;;;;;;;46.70;27.67;;;;;;;3.29;64.55;100044.91;696642;28;22364;-65
2021/01/01 01:33:26;;;;;;;43.38;26.00;;;;;;;3.29;64.62;100047.56;695727;28;46211;-64
2021/01/01 01:33:47;;;;;;;44.35;26.35;;;;;;;3.28;64.53;100048.56;696980;28;6851;-60
2021/01/01 01:34:09;;;;;;;44.00;26.30;;;;;;;3.30;64.67;100049.25;696833;28;16350;-62
2021/01/01 01:34:30;;;;;;;41.83;25.58;;;;;;;3.29;64.64;100051.09;696485;28;11425;-63
2021/01/01 01:34:52;;;;;;;43.28;25.92;;;;;;;3.29;64.70;100048.44;696579;28;13112;-63
2021/01/01 01:35:13;;;;;;;39.75;25.60;;;;;;;3.28;64.58;100048.56;696081;28;19167;-66
2021/01/01 01:35:34;;;;;;;41.72;26.40;;;;;;;3.29;64.63;100055.56;697002;28;14010;-65
2021/01/01 01:35:56;;;;;;;41.63;25.95;;;;;;;3.29;64.61;100053.78;695248;28;44627;-61
2021/01/01 01:36:17;;;;;;;44.80;27.05;;;;;;;3.30;64.56;100051.94;695974;28;23551;-62
2021/01/01 01:36:39;;;;;;;43.03;26.42;;;;;;;3.28;64.62;100044.06;695896;28;46354;-62
2021/01/01 01:37:00;;;;;;;38.60;24.67;;;;;;;3.31;64.72;100053.59;696634;28;7158;-63
2021/01/01 01:37:23;;;;;;;41.42;24.45;;;;;;;3.30;64.54;100046.59;696002;28;23560;-61
2021/01/01 01:37:44;;;;;;;40.38;24.60;;;;;;;3.30;64.55;100052.75;694787;28;69431;-61
2021/01/01 01:38:05;;;;;;;42.65;25.25;;;;;;;3.29;64.50;100048.44;696459;28;23641;-63
2021/01/01 01:38:27;;;;;;;38.83;24.10;;;;;;;3.29;64.60;100052.91;695732;28;45860;-63
2021/01/01 01:38:49;;;;;;;39.35;24.20;;;;;;;3.29;64.64;100051.09;695996;28;23651;-62
2021/01/01 01:39:10;;;;;;;36.85;23.05;;;;;;;3.29;64.58;100053.78;695291;28;45241;-61
2021/01/01 01:39:31;;;;;;;39.70;23.75;;;;;;;3.28;64.61;100054.75;696275;28;21239;-63
2021/01/01 01:39:52;;;;;;;40.42;24.13;;;;;;;3.28;64.53;100051.25;695845;28;45008;-66
2021/01/01 01:40:14;;;;;;;39.95;23.90;;;;;;;3.27;64.64;100052.22;696388;28;22412;-63
2021/01/01 01:40:36;;;;;;;39.90;23.42;;;;;;;3.27;64.70;100049.56;696200;28;30809;-61
2021/01/01 01:40:57;;;;;;;40.22;23.58;;;;;;;3.27;64.66;100047.72;696712;28;23506;-60